sensor_id;sensor_type;location;lat;lon;timestamp;pressure;altitude;pressure_sealevel;temperature;humidity
46211;BME280;52144;48.040;-1.594;2022-10-16T00:01:35;100613.19;;;17.28;100.00
46211;BME280;52144;48.040;-1.594;2022-10-16T00:04:03;100615.16;;;17.37;100.00
46211;BME280;52144;48.040;-1.594;2022-10-16T00:06:31;100620.56;;;17.37;100.00
46211;BME280;52144;48.040;-1.594;2022-10-16T00:08:59;100608.69;;;17.40;100.00
46211;BME280;52144;48.040;-1.594;2022-10-16T00:11:30;100620.56;;;17.37;100.00
46211;BME280;52144;48.040;-1.594;2022-10-16T00:14:02;100618.84;;;17.36;100.00
46211;BME280;52144;48.040;-1.594;2022-10-16T00:16:30;100618.50;;;17.41;100.00
46211;BME280;52144;48.040;-1.594;2022-10-16T00:18:59;100613.56;;;17.35;100.00
46211;BME280;52144;48.040;-1.594;2022-10-16T00:21:28;100613.84;;;17.43;100.00
46211;BME280;52144;48.040;-1.594;2022-10-16T00:23:58;100610.31;;;17.42;100.00
46211;BME280;52144;48.040;-1.594;2022-10-16T00:26:29;100605.88;;;17.41;100.00
46211;BME280;52144;48.040;-1.594;2022-10-16T00:28:57;100608.00;;;17.49;100.00
46211;BME280;52144;48.040;-1.594;2022-10-16T00:31:25;100621.19;;;17.41;100.00
46211;BME280;52144;48.040;-1.594;2022-10-16T00:33:54;100623.13;;;17.39;100.00
46211;BME280;52144;48.040;-1.594;2022-10-16T00:36:23;100613.03;;;17.54;100.00
46211;BME280;52144;48.040;-1.594;2022-10-16T00:38:52;100619.88;;;17.47;100.00
46211;BME280;52144;48.040;-1.594;2022-10-16T00:41:22;100622.63;;;17.34;100.00
46211;BME280;52144;48.040;-1.594;2022-10-16T00:43:53;100618.38;;;17.42;100.00
46211;BME280;52144;48.040;-1.594;2022-10-16T00:46:23;100623.13;;;17.39;100.00
46211;BME280;52144;48.040;-1.594;2022-10-16T00:48:56;100632.06;;;17.39;100.00
46211;BME280;52144;48.040;-1.594;2022-10-16T00:51:30;100627.88;;;17.35;100.00
46211;BME280;52144;48.040;-1.594;2022-10-16T00:54:00;100622.41;;;17.48;100.00
46211;BME280;52144;48.040;-1.594;2022-10-16T00:56:29;100624.63;;;17.43;100.00
46211;BME280;52144;48.040;-1.594;2022-10-16T00:59:01;100625.63;;;17.53;100.00
46211;BME280;52144;48.040;-1.594;2022-10-16T01:01:31;100631.50;;;17.47;100.00
46211;BME280;52144;48.040;-1.594;2022-10-16T01:03:58;100629.38;;;17.39;100.00
46211;BME280;52144;48.040;-1.594;2022-10-16T01:06:32;100624.84;;;17.40;100.00
46211;BME280;52144;48.040;-1.594;2022-10-16T01:09:12;100632.47;;;17.46;100.00
46211;BME280;52144;48.040;-1.594;2022-10-16T01:11:47;100630.69;;;17.34;100.00
46211;BME280;52144;48.040;-1.594;2022-10-16T01:14:22;100623.88;;;17.41;100.00
46211;BME280;52144;48.040;-1.594;2022-10-16T01:16:58;100620.72;;;17.47;100.00
46211;BME280;52144;48.040;-1.594;2022-10-16T01:19:43;100609.94;;;17.47;100.00
46211;BME280;52144;48.040;-1.594;2022-10-16T01:22:13;100623.63;;;17.44;100.00
46211;BME280;52144;48.040;-1.594;2022-10-16T01:24:44;100625.25;;;17.47;100.00
46211;BME280;52144;48.040;-1.594;2022-10-16T01:27:21;100629.28;;;17.41;100.00
46211;BME280;52144;48.040;-1.594;2022-10-16T01:29:53;100622.47;;;17.24;100.00
46211;BME280;52144;48.040;-1.594;2022-10-16T01:32:28;100636.34;;;17.42;100.00
46211;BME280;52144;48.040;-1.594;2022-10-16T01:35:03;100625.75;;;17.16;100.00
46211;BME280;52144;48.040;-1.594;2022-10-16T01:37:33;100638.38;;;17.27;100.00
46211;BME280;52144;48.040;-1.594;2022-10-16T01:40:05;100638.28;;;17.29;100.00
46211;BME280;52144;48.040;-1.594;2022-10-16T01:42:38;100643.41;;;17.32;100.00
46211;BME280;52144;48.040;-1.594;2022-10-16T01:45:08;100638.78;;;17.34;100.00
46211;BME280;52144;48.040;-1.594;2022-10-16T01:47:40;100636.31;;;17.31;100.00
46211;BME280;52144;48.040;-1.594;2022-10-16T01:50:10;100634.13;;;17.36;100.00
46211;BME280;52144;48.040;-1.594;2022-10-16T01:52:43;100630.09;;;17.30;100.00
46211;BME280;52144;48.040;-1.594;2022-10-16T01:55:17;100629.84;;;17.33;100.00
46211;BME280;52144;48.040;-1.594;2022-10-16T01:57:49;100621.03;;;17.31;100.00
46211;BME280;52144;48.040;-1.594;2022-10-16T02:00:20;100629.94;;;17.32;100.00
46211;BME280;52144;48.040;-1.594;2022-10-16T02:02:51;100627.13;;;17.22;100.00
46211;BME280;52144;48.040;-1.594;2022-10-16T02:05:24;100629.22;;;17.30;100.00
46211;BME280;52144;48.040;-1.594;2022-10-16T02:07:53;100640.88;;;17.30;100.00
46211;BME280;52144;48.040;-1.594;2022-10-16T02:10:24;100644.13;;;17.22;100.00
46211;BME280;52144;48.040;-1.594;2022-10-16T02:12:58;100644.59;;;17.16;100.00
46211;BME280;52144;48.040;-1.594;2022-10-16T02:15:27;100648.97;;;17.17;100.00
46211;BME280;52144;48.040;-1.594;2022-10-16T02:17:54;100648.47;;;17.12;100.00
46211;BME280;52144;48.040;-1.594;2022-10-16T02:20:25;100646.53;;;17.14;100.00
46211;BME280;52144;48.040;-1.594;2022-10-16T02:22:56;100634.28;;;17.10;100.00
46211;BME280;52144;48.040;-1.594;2022-10-16T02:25:27;100635.69;;;17.03;100.00
46211;BME280;52144;48.040;-1.594;2022-10-16T02:28:02;100641.22;;;16.89;100.00
46211;BME280;52144;48.040;-1.594;2022-10-16T02:30:34;100631.13;;;16.79;100.00
46211;BME280;52144;48.040;-1.594;2022-10-16T02:33:06;100638.44;;;16.77;100.00
46211;BME280;52144;48.040;-1.594;2022-10-16T02:35:35;100632.44;;;16.74;100.00
46211;BME280;52144;48.040;-1.594;2022-10-16T02:38:03;100631.59;;;16.73;100.00
46211;BME280;52144;48.040;-1.594;2022-10-16T02:40:32;100639.56;;;16.62;100.00
46211;BME280;52144;48.040;-1.594;2022-10-16T02:43:03;100638.16;;;16.56;100.00
46211;BME280;52144;48.040;-1.594;2022-10-16T02:45:31;100624.53;;;16.47;100.00
46211;BME280;52144;48.040;-1.594;2022-10-16T02:47:59;100631.28;;;16.52;100.00
46211;BME280;52144;48.040;-1.594;2022-10-16T02:50:27;100627.97;;;16.49;100.00
46211;BME280;52144;48.040;-1.594;2022-10-16T02:52:55;100630.97;;;16.44;100.00
46211;BME280;52144;48.040;-1.594;2022-10-16T02:55:22;100635.50;;;16.43;100.00
46211;BME280;52144;48.040;-1.594;2022-10-16T02:57:50;100638.69;;;16.61;100.00
46211;BME280;52144;48.040;-1.594;2022-10-16T03:00:20;100640.31;;;16.64;100.00
46211;BME280;52144;48.040;-1.594;2022-10-16T03:02:48;100635.16;;;16.61;100.00
46211;BME280;52144;48.040;-1.594;2022-10-16T03:05:16;100638.06;;;16.58;100.00
46211;BME280;52144;48.040;-1.594;2022-10-16T03:07:44;100639.34;;;16.65;100.00
46211;BME280;52144;48.040;-1.594;2022-10-16T03:10:12;100635.59;;;16.55;100.00
46211;BME280;52144;48.040;-1.594;2022-10-16T03:12:39;100637.56;;;16.53;100.00
46211;BME280;52144;48.040;-1.594;2022-10-16T03:15:09;100645.38;;;16.56;100.00
46211;BME280;52144;48.040;-1.594;2022-10-16T03:17:38;100644.97;;;16.49;100.00
46211;BME280;52144;48.040;-1.594;2022-10-16T03:20:06;100651.75;;;16.55;100.00
46211;BME280;52144;48.040;-1.594;2022-10-16T03:22:34;100645.03;;;16.60;100.00
46211;BME280;52144;48.040;-1.594;2022-10-16T03:25:02;100646.63;;;16.76;100.00
46211;BME280;52144;48.040;-1.594;2022-10-16T03:27:30;100651.16;;;16.75;100.00
46211;BME280;52144;48.040;-1.594;2022-10-16T03:29:58;100655.03;;;16.84;100.00
46211;BME280;52144;48.040;-1.594;2022-10-16T03:32:26;100656.75;;;16.85;100.00
46211;BME280;52144;48.040;-1.594;2022-10-16T03:34:56;100647.47;;;16.89;100.00
46211;BME280;52144;48.040;-1.594;2022-10-16T03:37:24;100657.84;;;16.82;100.00
46211;BME280;52144;48.040;-1.594;2022-10-16T03:39:52;100656.06;;;16.94;100.00
46211;BME280;52144;48.040;-1.594;2022-10-16T03:42:20;100657.22;;;17.03;100.00
46211;BME280;52144;48.040;-1.594;2022-10-16T03:44:48;100653.00;;;17.12;100.00
46211;BME280;52144;48.040;-1.594;2022-10-16T03:47:15;100651.91;;;17.14;100.00
46211;BME280;52144;48.040;-1.594;2022-10-16T03:49:47;100652.88;;;17.13;100.00
46211;BME280;52144;48.040;-1.594;2022-10-16T03:52:16;100649.63;;;17.21;100.00
46211;BME280;52144;48.040;-1.594;2022-10-16T03:54:49;100645.44;;;17.17;100.00
46211;BME280;52144;48.040;-1.594;2022-10-16T03:57:17;100635.31;;;17.20;100.00
46211;BME280;52144;48.040;-1.594;2022-10-16T03:59:44;100643.28;;;17.22;100.00
46211;BME280;52144;48.040;-1.594;2022-10-16T04:02:12;100647.78;;;17.21;100.00
46211;BME280;52144;48.040;-1.594;2022-10-16T04:04:40;100666.31;;;17.26;100.00
46211;BME280;52144;48.040;-1.594;2022-10-16T04:07:08;100667.66;;;17.32;100.00
46211;BME280;52144;48.040;-1.594;2022-10-16T04:09:37;100661.31;;;17.33;100.00
46211;BME280;52144;48.040;-1.594;2022-10-16T04:12:05;100668.53;;;17.32;100.00
46211;BME280;52144;48.040;-1.594;2022-10-16T04:14:33;100664.63;;;17.36;100.00
46211;BME280;52144;48.040;-1.594;2022-10-16T04:17:00;100668.28;;;17.35;100.00
46211;BME280;52144;48.040;-1.594;2022-10-16T04:19:28;100659.81;;;17.29;100.00
46211;BME280;52144;48.040;-1.594;2022-10-16T04:21:56;100656.38;;;17.27;100.00
46211;BME280;52144;48.040;-1.594;2022-10-16T04:24:24;100656.78;;;17.33;100.00
46211;BME280;52144;48.040;-1.594;2022-10-16T04:26:53;100655.66;;;17.36;100.00
46211;BME280;52144;48.040;-1.594;2022-10-16T04:29:20;100653.72;;;17.38;100.00
46211;BME280;52144;48.040;-1.594;2022-10-16T04:31:48;100637.91;;;17.33;100.00
46211;BME280;52144;48.040;-1.594;2022-10-16T04:34:16;100643.31;;;17.33;100.00
46211;BME280;52144;48.040;-1.594;2022-10-16T04:36:44;100650.53;;;17.33;100.00
46211;BME280;52144;48.040;-1.594;2022-10-16T04:39:14;100638.56;;;17.37;100.00
46211;BME280;52144;48.040;-1.594;2022-10-16T04:41:41;100637.69;;;17.36;100.00
46211;BME280;52144;48.040;-1.594;2022-10-16T04:44:10;100649.22;;;17.38;100.00
46211;BME280;52144;48.040;-1.594;2022-10-16T04:46:38;100659.75;;;17.41;100.00
46211;BME280;52144;48.040;-1.594;2022-10-16T04:49:06;100640.25;;;17.38;100.00
46211;BME280;52144;48.040;-1.594;2022-10-16T04:51:33;100647.38;;;17.39;100.00
46211;BME280;52144;48.040;-1.594;2022-10-16T04:54:01;100648.34;;;17.38;100.00
46211;BME280;52144;48.040;-1.594;2022-10-16T04:56:29;100660.84;;;17.39;100.00
46211;BME280;52144;48.040;-1.594;2022-10-16T04:58:57;100663.53;;;17.39;100.00
46211;BME280;52144;48.040;-1.594;2022-10-16T05:01:26;100667.47;;;17.46;100.00
46211;BME280;52144;48.040;-1.594;2022-10-16T05:03:54;100668.34;;;17.47;100.00
46211;BME280;52144;48.040;-1.594;2022-10-16T05:06:21;100675.44;;;17.48;100.00
46211;BME280;52144;48.040;-1.594;2022-10-16T05:08:49;100661.88;;;17.49;100.00
46211;BME280;52144;48.040;-1.594;2022-10-16T05:11:17;100656.22;;;17.52;100.00
46211;BME280;52144;48.040;-1.594;2022-10-16T05:13:44;100663.72;;;17.49;100.00
46211;BME280;52144;48.040;-1.594;2022-10-16T05:16:15;100660.88;;;17.50;100.00
46211;BME280;52144;48.040;-1.594;2022-10-16T05:18:44;100645.59;;;17.51;100.00
46211;BME280;52144;48.040;-1.594;2022-10-16T05:21:12;100663.34;;;17.53;100.00
46211;BME280;52144;48.040;-1.594;2022-10-16T05:23:39;100662.81;;;17.48;100.00
46211;BME280;52144;48.040;-1.594;2022-10-16T05:26:07;100670.91;;;17.48;100.00
46211;BME280;52144;48.040;-1.594;2022-10-16T05:28:35;100662.81;;;17.48;100.00
46211;BME280;52144;48.040;-1.594;2022-10-16T05:31:04;100681.00;;;17.57;100.00
46211;BME280;52144;48.040;-1.594;2022-10-16T05:33:32;100659.19;;;17.60;100.00
46211;BME280;52144;48.040;-1.594;2022-10-16T05:36:02;100657.72;;;17.56;100.00
46211;BME280;52144;48.040;-1.594;2022-10-16T05:38:30;100663.63;;;17.61;100.00
46211;BME280;52144;48.040;-1.594;2022-10-16T05:40:58;100664.38;;;17.63;100.00
46211;BME280;52144;48.040;-1.594;2022-10-16T05:43:27;100669.28;;;17.70;100.00
46211;BME280;52144;48.040;-1.594;2022-10-16T05:45:55;100668.91;;;17.63;100.00
46211;BME280;52144;48.040;-1.594;2022-10-16T05:48:23;100672.44;;;17.63;100.00
46211;BME280;52144;48.040;-1.594;2022-10-16T05:50:58;100677.94;;;17.62;100.00
46211;BME280;52144;48.040;-1.594;2022-10-16T05:53:29;100669.50;;;17.67;100.00
46211;BME280;52144;48.040;-1.594;2022-10-16T05:55:58;100657.50;;;17.59;100.00
46211;BME280;52144;48.040;-1.594;2022-10-16T05:58:29;100665.09;;;17.65;100.00
46211;BME280;52144;48.040;-1.594;2022-10-16T06:00:58;100652.50;;;17.66;100.00
46211;BME280;52144;48.040;-1.594;2022-10-16T06:03:26;100652.09;;;17.59;100.00
46211;BME280;52144;48.040;-1.594;2022-10-16T06:05:55;100644.78;;;17.61;100.00
46211;BME280;52144;48.040;-1.594;2022-10-16T06:08:23;100642.53;;;17.55;100.00
46211;BME280;52144;48.040;-1.594;2022-10-16T06:11:01;100646.94;;;17.56;100.00
46211;BME280;52144;48.040;-1.594;2022-10-16T06:13:30;100644.78;;;17.61;100.00
46211;BME280;52144;48.040;-1.594;2022-10-16T06:15:58;100646.72;;;17.59;100.00
46211;BME280;52144;48.040;-1.594;2022-10-16T06:18:27;100644.78;;;17.61;100.00
46211;BME280;52144;48.040;-1.594;2022-10-16T06:20:56;100647.34;;;17.63;100.00
46211;BME280;52144;48.040;-1.594;2022-10-16T06:23:25;100648.94;;;17.65;100.00
46211;BME280;52144;48.040;-1.594;2022-10-16T06:25:53;100654.44;;;17.64;100.00
46211;BME280;52144;48.040;-1.594;2022-10-16T06:28:22;100656.66;;;17.70;100.00
46211;BME280;52144;48.040;-1.594;2022-10-16T06:30:58;100660.22;;;17.71;100.00
46211;BME280;52144;48.040;-1.594;2022-10-16T06:33:32;100662.16;;;17.69;100.00
46211;BME280;52144;48.040;-1.594;2022-10-16T06:36:01;100665.28;;;17.75;100.00
46211;BME280;52144;48.040;-1.594;2022-10-16T06:38:30;100669.50;;;17.67;100.00
46211;BME280;52144;48.040;-1.594;2022-10-16T06:40:58;100666.59;;;17.70;100.00
46211;BME280;52144;48.040;-1.594;2022-10-16T06:43:28;100671.25;;;17.68;100.00
46211;BME280;52144;48.040;-1.594;2022-10-16T06:45:59;100682.41;;;17.74;100.00
46211;BME280;52144;48.040;-1.594;2022-10-16T06:48:28;100680.06;;;17.70;100.00
46211;BME280;52144;48.040;-1.594;2022-10-16T06:50:58;100684.59;;;17.69;100.00
46211;BME280;52144;48.040;-1.594;2022-10-16T06:53:27;100685.25;;;17.73;100.00
46211;BME280;52144;48.040;-1.594;2022-10-16T06:56:15;100690.84;;;17.70;100.00
46211;BME280;52144;48.040;-1.594;2022-10-16T06:58:45;100703.50;;;17.80;100.00
46211;BME280;52144;48.040;-1.594;2022-10-16T07:01:14;100699.63;;;17.84;100.00
46211;BME280;52144;48.040;-1.594;2022-10-16T07:03:44;100707.38;;;17.89;100.00
46211;BME280;52144;48.040;-1.594;2022-10-16T07:06:13;100701.72;;;17.92;100.00
46211;BME280;52144;48.040;-1.594;2022-10-16T07:08:42;100698.81;;;17.95;100.00
46211;BME280;52144;48.040;-1.594;2022-10-16T07:11:12;100697.72;;;17.98;100.00
46211;BME280;52144;48.040;-1.594;2022-10-16T07:13:42;100704.53;;;17.91;100.00
46211;BME280;52144;48.040;-1.594;2022-10-16T07:16:14;100712.03;;;17.98;100.00
46211;BME280;52144;48.040;-1.594;2022-10-16T07:18:42;100702.72;;;18.02;100.00
46211;BME280;52144;48.040;-1.594;2022-10-16T07:21:14;100701.88;;;18.02;100.00
46211;BME280;52144;48.040;-1.594;2022-10-16T07:23:42;100706.06;;;18.06;100.00
46211;BME280;52144;48.040;-1.594;2022-10-16T07:26:10;100709.38;;;18.10;100.00
46211;BME280;52144;48.040;-1.594;2022-10-16T07:28:38;100721.75;;;18.12;100.00
46211;BME280;52144;48.040;-1.594;2022-10-16T07:31:09;100716.25;;;18.14;100.00
46211;BME280;52144;48.040;-1.594;2022-10-16T07:33:40;100709.38;;;18.10;100.00
46211;BME280;52144;48.040;-1.594;2022-10-16T07:36:09;100702.03;;;18.12;100.00
46211;BME280;52144;48.040;-1.594;2022-10-16T07:38:41;100709.13;;;18.13;100.00
46211;BME280;52144;48.040;-1.594;2022-10-16T07:41:11;100716.38;;;18.12;100.00
46211;BME280;52144;48.040;-1.594;2022-10-16T07:43:39;100707.66;;;18.09;100.00
46211;BME280;52144;48.040;-1.594;2022-10-16T07:46:07;100709.59;;;18.07;100.00
46211;BME280;52144;48.040;-1.594;2022-10-16T07:48:35;100713.66;;;18.12;100.00
46211;BME280;52144;48.040;-1.594;2022-10-16T07:51:05;100717.72;;;18.18;100.00
46211;BME280;52144;48.040;-1.594;2022-10-16T07:53:33;100717.84;;;18.28;100.00
46211;BME280;52144;48.040;-1.594;2022-10-16T07:56:03;100707.94;;;18.28;100.00
46211;BME280;52144;48.040;-1.594;2022-10-16T07:58:33;100713.00;;;18.44;100.00
46211;BME280;52144;48.040;-1.594;2022-10-16T08:01:05;100710.53;;;18.41;100.00
46211;BME280;52144;48.040;-1.594;2022-10-16T08:03:33;100699.00;;;18.39;100.00
46211;BME280;52144;48.040;-1.594;2022-10-16T08:06:02;100703.16;;;18.43;100.00
46211;BME280;52144;48.040;-1.594;2022-10-16T08:08:31;100710.91;;;18.36;100.00
46211;BME280;52144;48.040;-1.594;2022-10-16T08:10:59;100698.78;;;18.42;100.00
46211;BME280;52144;48.040;-1.594;2022-10-16T08:13:29;100703.44;;;18.62;100.00
46211;BME280;52144;48.040;-1.594;2022-10-16T08:15:57;100704.16;;;18.64;100.00
46211;BME280;52144;48.040;-1.594;2022-10-16T08:18:25;100725.13;;;18.95;100.00
46211;BME280;52144;48.040;-1.594;2022-10-16T08:20:56;100727.56;;;19.20;100.00
46211;BME280;52144;48.040;-1.594;2022-10-16T08:23:25;100726.81;;;19.30;100.00
46211;BME280;52144;48.040;-1.594;2022-10-16T08:25:55;100724.13;;;19.18;99.89
46211;BME280;52144;48.040;-1.594;2022-10-16T08:28:23;100724.75;;;19.22;96.20
46211;BME280;52144;48.040;-1.594;2022-10-16T08:30:51;100728.38;;;19.43;98.37
46211;BME280;52144;48.040;-1.594;2022-10-16T08:33:19;100721.56;;;19.60;96.97
46211;BME280;52144;48.040;-1.594;2022-10-16T08:35:52;100709.88;;;19.71;96.53
46211;BME280;52144;48.040;-1.594;2022-10-16T08:38:21;100703.41;;;19.51;96.41
46211;BME280;52144;48.040;-1.594;2022-10-16T08:40:49;100712.47;;;19.73;98.68
46211;BME280;52144;48.040;-1.594;2022-10-16T08:43:39;100719.72;;;19.93;96.70
46211;BME280;52144;48.040;-1.594;2022-10-16T08:46:24;100722.47;;;19.82;94.43
46211;BME280;52144;48.040;-1.594;2022-10-16T08:48:59;100707.50;;;19.78;94.33
46211;BME280;52144;48.040;-1.594;2022-10-16T08:51:30;100719.97;;;19.90;96.08
46211;BME280;52144;48.040;-1.594;2022-10-16T08:54:02;100712.16;;;20.08;99.63
46211;BME280;52144;48.040;-1.594;2022-10-16T08:56:31;100705.94;;;20.17;98.18
46211;BME280;52144;48.040;-1.594;2022-10-16T08:59:01;100704.50;;;20.13;94.85
46211;BME280;52144;48.040;-1.594;2022-10-16T09:01:37;100715.31;;;19.92;94.50
46211;BME280;52144;48.040;-1.594;2022-10-16T09:04:25;100733.84;;;20.18;94.50
46211;BME280;52144;48.040;-1.594;2022-10-16T09:07:03;100727.00;;;20.14;91.67
46211;BME280;52144;48.040;-1.594;2022-10-16T09:09:48;100707.53;;;19.99;92.35
46211;BME280;52144;48.040;-1.594;2022-10-16T09:12:26;100709.69;;;19.84;92.04
46211;BME280;52144;48.040;-1.594;2022-10-16T09:15:12;100706.53;;;20.00;92.55
46211;BME280;52144;48.040;-1.594;2022-10-16T09:17:51;100719.22;;;19.99;92.23
46211;BME280;52144;48.040;-1.594;2022-10-16T09:20:28;100722.88;;;19.98;91.31
46211;BME280;52144;48.040;-1.594;2022-10-16T09:23:12;100730.94;;;20.10;92.04
46211;BME280;52144;48.040;-1.594;2022-10-16T09:25:43;100735.75;;;20.06;93.15
46211;BME280;52144;48.040;-1.594;2022-10-16T09:28:11;100733.66;;;20.10;91.67
46211;BME280;52144;48.040;-1.594;2022-10-16T09:30:41;100728.69;;;19.94;90.94
46211;BME280;52144;48.040;-1.594;2022-10-16T09:33:10;100706.22;;;19.72;88.99
46211;BME280;52144;48.040;-1.594;2022-10-16T09:35:40;100696.44;;;19.37;90.20
46211;BME280;52144;48.040;-1.594;2022-10-16T09:38:20;100698.84;;;19.52;90.80
46211;BME280;52144;48.040;-1.594;2022-10-16T09:40:48;100691.22;;;19.57;91.61
46211;BME280;52144;48.040;-1.594;2022-10-16T09:43:33;100696.72;;;19.67;91.06
46211;BME280;52144;48.040;-1.594;2022-10-16T09:46:05;100691.44;;;19.65;91.40
46211;BME280;52144;48.040;-1.594;2022-10-16T09:48:37;100691.06;;;19.70;90.33
46211;BME280;52144;48.040;-1.594;2022-10-16T09:51:15;100698.09;;;19.72;90.75
46211;BME280;52144;48.040;-1.594;2022-10-16T09:53:45;100696.44;;;19.81;88.75
46211;BME280;52144;48.040;-1.594;2022-10-16T09:56:22;100691.56;;;19.96;90.15
46211;BME280;52144;48.040;-1.594;2022-10-16T09:58:50;100697.78;;;19.87;89.40
46211;BME280;52144;48.040;-1.594;2022-10-16T10:01:24;100685.56;;;20.13;90.38
46211;BME280;52144;48.040;-1.594;2022-10-16T10:03:56;100693.19;;;20.29;86.82
46211;BME280;52144;48.040;-1.594;2022-10-16T10:06:29;100696.19;;;20.26;87.61
46211;BME280;52144;48.040;-1.594;2022-10-16T10:09:00;100702.03;;;20.31;84.78
46211;BME280;52144;48.040;-1.594;2022-10-16T10:11:48;100699.59;;;20.28;86.39
46211;BME280;52144;48.040;-1.594;2022-10-16T10:14:23;100690.53;;;20.39;83.87
46211;BME280;52144;48.040;-1.594;2022-10-16T10:17:07;100695.97;;;20.18;81.82
46211;BME280;52144;48.040;-1.594;2022-10-16T10:19:41;100705.22;;;19.94;84.35
46211;BME280;52144;48.040;-1.594;2022-10-16T10:22:31;100687.41;;;19.71;84.66
46211;BME280;52144;48.040;-1.594;2022-10-16T10:25:12;100685.72;;;19.58;87.00
46211;BME280;52144;48.040;-1.594;2022-10-16T10:27:53;100677.09;;;19.32;87.66
46211;BME280;52144;48.040;-1.594;2022-10-16T10:30:27;100685.34;;;19.19;90.50
46211;BME280;52144;48.040;-1.594;2022-10-16T10:33:05;100683.91;;;19.04;89.30
46211;BME280;52144;48.040;-1.594;2022-10-16T10:35:43;100676.88;;;19.13;90.42
46211;BME280;52144;48.040;-1.594;2022-10-16T10:38:21;100679.84;;;18.98;91.14
46211;BME280;52144;48.040;-1.594;2022-10-16T10:40:59;100677.28;;;18.97;93.58
46211;BME280;52144;48.040;-1.594;2022-10-16T10:43:42;100678.09;;;19.20;93.98
46211;BME280;52144;48.040;-1.594;2022-10-16T10:46:18;100674.41;;;19.21;93.80
46211;BME280;52144;48.040;-1.594;2022-10-16T10:49:12;100672.88;;;19.07;96.03
46211;BME280;52144;48.040;-1.594;2022-10-16T10:51:53;100677.53;;;18.94;95.80
46211;BME280;52144;48.040;-1.594;2022-10-16T10:54:28;100685.97;;;19.12;95.60
46211;BME280;52144;48.040;-1.594;2022-10-16T10:57:02;100688.06;;;19.08;96.51
46211;BME280;52144;48.040;-1.594;2022-10-16T10:59:48;100709.66;;;19.19;95.53
46211;BME280;52144;48.040;-1.594;2022-10-16T11:02:26;100709.06;;;19.16;95.64
46211;BME280;52144;48.040;-1.594;2022-10-16T11:08:10;100711.16;;;19.01;96.44
46211;BME280;52144;48.040;-1.594;2022-10-16T11:10:45;100714.34;;;19.06;100.00
46211;BME280;52144;48.040;-1.594;2022-10-16T11:13:22;100716.31;;;19.04;100.00
46211;BME280;52144;48.040;-1.594;2022-10-16T11:15:54;100728.09;;;18.92;100.00
46211;BME280;52144;48.040;-1.594;2022-10-16T11:18:24;100730.16;;;18.65;100.00
46211;BME280;52144;48.040;-1.594;2022-10-16T11:20:57;100730.41;;;18.62;100.00
46211;BME280;52144;48.040;-1.594;2022-10-16T11:23:30;100726.84;;;18.62;100.00
46211;BME280;52144;48.040;-1.594;2022-10-16T11:26:05;100718.63;;;18.63;100.00
46211;BME280;52144;48.040;-1.594;2022-10-16T11:28:38;100710.53;;;18.63;100.00
46211;BME280;52144;48.040;-1.594;2022-10-16T11:31:13;100712.03;;;18.56;100.00
46211;BME280;52144;48.040;-1.594;2022-10-16T11:33:44;100707.47;;;18.57;100.00
46211;BME280;52144;48.040;-1.594;2022-10-16T11:36:16;100706.22;;;18.50;100.00
46211;BME280;52144;48.040;-1.594;2022-10-16T11:38:54;100707.97;;;18.51;100.00
46211;BME280;52144;48.040;-1.594;2022-10-16T11:41:29;100700.84;;;18.50;100.00
46211;BME280;52144;48.040;-1.594;2022-10-16T11:44:09;100699.59;;;18.54;100.00
46211;BME280;52144;48.040;-1.594;2022-10-16T11:46:48;100694.47;;;18.62;100.00
46211;BME280;52144;48.040;-1.594;2022-10-16T11:49:37;100690.56;;;18.55;100.00
46211;BME280;52144;48.040;-1.594;2022-10-16T11:52:12;100684.28;;;18.43;100.00
46211;BME280;52144;48.040;-1.594;2022-10-16T11:54:47;100665.03;;;18.25;100.00
46211;BME280;52144;48.040;-1.594;2022-10-16T11:57:20;100663.06;;;18.16;100.00
46211;BME280;52144;48.040;-1.594;2022-10-16T11:59:53;100640.88;;;17.65;100.00
46211;BME280;52144;48.040;-1.594;2022-10-16T12:02:32;100633.13;;;17.85;100.00
46211;BME280;52144;48.040;-1.594;2022-10-16T12:05:12;100624.91;;;17.98;100.00
46211;BME280;52144;48.040;-1.594;2022-10-16T12:07:47;100633.75;;;18.00;100.00
46211;BME280;52144;48.040;-1.594;2022-10-16T12:10:24;100633.16;;;18.19;100.00
46211;BME280;52144;48.040;-1.594;2022-10-16T12:12:53;100630.97;;;18.24;100.00
46211;BME280;52144;48.040;-1.594;2022-10-16T12:15:25;100626.66;;;18.44;100.00
46211;BME280;52144;48.040;-1.594;2022-10-16T12:18:21;100620.03;;;18.59;100.00
46211;BME280;52144;48.040;-1.594;2022-10-16T12:20:54;100623.31;;;18.74;100.00
46211;BME280;52144;48.040;-1.594;2022-10-16T12:23:25;100621.25;;;18.89;100.00
46211;BME280;52144;48.040;-1.594;2022-10-16T12:25:58;100619.50;;;18.88;100.00
46211;BME280;52144;48.040;-1.594;2022-10-16T12:28:28;100615.31;;;18.95;100.00
46211;BME280;52144;48.040;-1.594;2022-10-16T12:30:57;100616.94;;;18.87;100.00
46211;BME280;52144;48.040;-1.594;2022-10-16T12:33:27;100608.84;;;18.75;100.00
46211;BME280;52144;48.040;-1.594;2022-10-16T12:35:56;100610.28;;;18.91;100.00
46211;BME280;52144;48.040;-1.594;2022-10-16T12:38:27;100608.09;;;18.84;100.00
46211;BME280;52144;48.040;-1.594;2022-10-16T12:40:59;100607.09;;;18.97;100.00
46211;BME280;52144;48.040;-1.594;2022-10-16T12:43:36;100604.03;;;19.01;100.00
46211;BME280;52144;48.040;-1.594;2022-10-16T12:46:20;100609.44;;;19.34;100.00
46211;BME280;52144;48.040;-1.594;2022-10-16T12:48:49;100608.00;;;19.18;100.00
46211;BME280;52144;48.040;-1.594;2022-10-16T12:51:35;100595.81;;;19.56;100.00
46211;BME280;52144;48.040;-1.594;2022-10-16T12:54:10;100595.31;;;19.51;100.00
46211;BME280;52144;48.040;-1.594;2022-10-16T12:56:51;100587.13;;;19.74;100.00
46211;BME280;52144;48.040;-1.594;2022-10-16T12:59:33;100584.25;;;20.27;100.00